Omidiyeh, Iran
Current Conditions -  °F | °C
As of 11:00 PM on Saturday 22 Nov 2014 (Local Time) from OIAG Reporting Station
Clear Clear  
Wind Chill: 64°   Ceiling: Unl
Heat Index: 64°   Visibility: 6mi
Dew Point: 54°   Wind: 7mph
Humidity: 68%   Direction: 150°SSE
Pressure: 29.94"   Gusts: NA
Location:  30.75°N, 49.71°E
Report Text: OIAG 222000Z 15006KT CAVOK 18/12 Q1014
Loading
Personal Weather Stations






























Interactive Weather Map New forecast layout! Learn more

10-Day Weather Forecast

Advertisements
Track Severe Weather on mobile